Time;durP1;ratioP1;P1;durP2;ratioP2;P2;SDS_P1;SDS_P2;PMS_P1;PMS_P2;Temp;Humidity;BMP_temperature;BMP_pressure;BME280_temperature;BME280_humidity;BME280_pressure;Samples;Min_cycle;Max_cycle;Signal;HPM_P1;HPM_P2
2021/11/16 00:00:36;;;;;;;17.60;8.20;;;;;;;0.51;68.17;101770.23;106155;1319;22272;-58
2021/11/16 00:03:05;;;;;;;15.90;8.10;;;;;;;0.52;68.12;101764.48;106016;1319;140036;-59
2021/11/16 00:05:33;;;;;;;14.50;6.90;;;;;;;0.53;68.27;101766.84;105627;1320;22549;-59
2021/11/16 00:08:02;;;;;;;25.60;10.90;;;;;;;0.54;68.19;101760.52;106083;1319;22499;-58
2021/11/16 00:10:30;;;;;;;30.20;13.70;;;;;;;0.56;68.29;101762.63;106036;1319;138901;-58
2021/11/16 00:12:58;;;;;;;24.60;12.10;;;;;;;0.57;68.45;101764.20;106156;1319;23453;-58
2021/11/16 00:15:27;;;;;;;32.80;14.10;;;;;;;0.59;68.58;101764.02;105725;1320;138631;-58
2021/11/16 00:17:55;;;;;;;17.60;8.60;;;;;;;0.61;68.49;101759.34;106150;1319;22472;-58
2021/11/16 00:20:24;;;;;;;52.90;18.60;;;;;;;0.62;68.72;101756.91;106021;1319;138145;-58
2021/11/16 00:22:52;;;;;;;25.80;11.80;;;;;;;0.64;68.55;101757.60;106182;1318;23208;-58
2021/11/16 00:25:23;;;;;;;14.70;7.50;;;;;;;0.66;68.62;101757.05;106127;1319;22492;-58
2021/11/16 00:27:51;;;;;;;47.30;18.50;;;;;;;0.66;68.50;101754.41;105667;1319;139112;-59
2021/11/16 00:30:19;;;;;;;42.20;15.10;;;;;;;0.70;68.63;101757.65;106130;1319;22498;-59
2021/11/16 00:32:48;;;;;;;49.60;19.40;;;;;;;0.71;68.43;101754.15;106020;1319;138154;-59
2021/11/16 00:35:15;;;;;;;19.50;9.70;;;;;;;0.70;68.55;101752.05;106150;1319;22263;-58
2021/11/16 00:37:44;;;;;;;26.10;11.60;;;;;;;0.68;68.27;101753.15;106105;1318;22472;-59
2021/11/16 00:40:19;;;;;;;16.00;7.30;;;;;;;0.66;68.19;101747.61;106017;1319;138034;-58
2021/11/16 00:42:48;;;;;;;17.60;7.10;;;;;;;0.63;67.95;101748.77;106181;1319;22458;-58
2021/11/16 00:45:16;;;;;;;15.40;8.60;;;;;;;0.63;67.72;101750.25;106052;1323;138972;-59
2021/11/16 00:47:45;;;;;;;19.40;9.80;;;;;;;0.63;67.88;101747.91;106128;1319;23080;-59
2021/11/16 00:50:15;;;;;;;26.30;12.90;;;;;;;0.59;67.42;101746.60;106169;1318;23169;-58
2021/11/16 00:52:44;;;;;;;27.50;12.00;;;;;;;0.56;67.62;101748.67;106096;1318;22509;-59
2021/11/16 00:55:12;;;;;;;30.10;13.20;;;;;;;0.54;67.55;101742.27;106081;1323;22525;-59
2021/11/16 00:57:41;;;;;;;31.60;13.30;;;;;;;0.53;67.58;101742.23;106048;1319;138120;-59
2021/11/16 01:00:09;;;;;;;25.10;12.50;;;;;;;0.51;67.58;101745.77;105804;1320;23230;-59
2021/11/16 01:02:38;;;;;;;26.90;11.80;;;;;;;0.51;67.52;101753.45;106042;1319;138236;-59
2021/11/16 01:05:07;;;;;;;10.00;6.70;;;;;;;0.51;67.80;101753.79;106107;1318;22478;-59
2021/11/16 01:07:36;;;;;;;12.20;6.40;;;;;;;0.50;67.11;101747.81;106144;1318;23201;-59
2021/11/16 01:10:04;;;;;;;11.10;5.70;;;;;;;0.48;66.94;101746.61;106055;1320;138509;-59
2021/11/16 01:12:33;;;;;;;13.10;6.90;;;;;;;0.44;67.03;101748.33;106166;1318;23250;-60
2021/11/16 01:15:01;;;;;;;11.00;6.70;;;;;;;0.43;66.97;101749.42;106055;1319;138281;-58
2021/11/16 01:17:29;;;;;;;19.80;8.70;;;;;;;0.41;67.18;101747.58;106163;1319;22447;-59
2021/11/16 01:20:02;;;;;;;21.60;9.30;;;;;;;0.40;67.32;101744.98;106146;1319;22447;-59
2021/11/16 01:22:30;;;;;;;19.60;8.90;;;;;;;0.42;67.59;101741.94;106041;1320;138092;-59
2021/11/16 01:24:58;;;;;;;14.70;7.10;;;;;;;0.44;67.67;101743.88;106119;1318;22469;-59
2021/11/16 01:27:32;;;;;;;13.70;7.60;;;;;;;0.44;67.35;101738.76;106062;1319;137991;-59
2021/11/16 01:30:01;;;;;;;10.50;6.90;;;;;;;0.43;67.92;101740.44;106132;1318;23642;-59
2021/11/16 01:32:40;;;;;;;9.90;5.90;;;;;;;0.43;67.71;101742.04;106008;1319;138310;-61
2021/11/16 01:35:08;;;;;;;5.50;4.00;;;;;;;0.44;67.79;101742.30;106110;1319;23339;-58
2021/11/16 01:37:36;;;;;;;7.30;4.80;;;;;;;0.44;67.51;101747.34;106145;1319;22449;-59
2021/11/16 01:40:08;;;;;;;7.20;5.20;;;;;;;0.41;67.51;101744.75;104364;1319;138652;-58
2021/11/16 01:42:36;;;;;;;10.60;5.50;;;;;;;0.39;67.51;101742.09;106138;1322;23110;-59
2021/11/16 01:45:05;;;;;;;6.70;4.60;;;;;;;0.36;67.49;101743.17;106062;1318;138111;-60
2021/11/16 01:47:34;;;;;;;7.70;5.80;;;;;;;0.34;67.41;101742.06;106109;1318;22367;-59
2021/11/16 01:50:03;;;;;;;12.40;7.10;;;;;;;0.33;67.50;101743.92;106111;1319;22481;-60
2021/11/16 01:52:33;;;;;;;11.50;7.00;;;;;;;0.32;67.55;101743.66;106064;1319;138198;-60
2021/11/16 01:55:02;;;;;;;9.30;5.80;;;;;;;0.31;67.53;101742.34;106153;1320;23220;-60
2021/11/16 01:57:32;;;;;;;6.50;5.00;;;;;;;0.31;67.12;101736.27;106280;1316;139412;-59
2021/11/16 02:00:01;;;;;;;11.90;6.60;;;;;;;0.31;67.28;101737.36;106366;1315;22536;-60
2021/11/16 02:02:36;;;;;;;8.70;5.40;;;;;;;0.30;67.28;101737.98;106029;1316;138606;-59
2021/11/16 02:05:04;;;;;;;8.40;6.00;;;;;;;0.29;67.28;101733.77;106329;1315;23462;-59
2021/11/16 02:07:32;;;;;;;11.00;6.50;;;;;;;0.29;67.33;101733.08;105170;1324;22533;-59
2021/11/16 02:10:00;;;;;;;6.60;4.40;;;;;;;0.27;67.34;101727.77;106153;1315;137940;-60
2021/11/16 02:12:28;;;;;;;11.70;4.70;;;;;;;0.29;67.04;101728.61;106390;1317;22443;-59
2021/11/16 02:14:56;;;;;;;13.80;7.70;;;;;;;0.31;67.08;101727.72;106216;1316;138158;-59
2021/11/16 02:17:24;;;;;;;11.00;6.10;;;;;;;0.33;67.27;101723.80;106356;1313;22392;-59
2021/11/16 02:19:52;;;;;;;10.30;6.20;;;;;;;0.33;67.02;101722.51;106399;1316;23293;-59
2021/11/16 02:22:20;;;;;;;9.60;6.40;;;;;;;0.33;67.13;101715.39;106169;1317;139220;-59
2021/11/16 02:24:48;;;;;;;14.00;7.00;;;;;;;0.33;67.31;101712.01;103133;1313;22613;-59
2021/11/16 02:27:17;;;;;;;9.20;6.00;;;;;;;0.32;67.22;101703.98;106193;1316;139014;-60
2021/11/16 02:29:44;;;;;;;15.90;10.50;;;;;;;0.34;67.21;101701.70;106294;1316;22596;-60
2021/11/16 02:32:13;;;;;;;11.80;9.30;;;;;;;0.35;67.11;101694.46;106409;1313;23581;-59
2021/11/16 02:34:40;;;;;;;12.80;9.00;;;;;;;0.33;67.25;101690.33;105373;1316;138234;-59
2021/11/16 02:37:09;;;;;;;9.80;5.90;;;;;;;0.36;67.11;101691.89;106313;1313;22472;-59
2021/11/16 02:39:37;;;;;;;10.10;7.10;;;;;;;0.35;67.20;101692.48;106276;1316;137903;-59
2021/11/16 02:42:06;;;;;;;7.60;5.50;;;;;;;0.36;67.18;101687.77;106340;1313;22496;-59
2021/11/16 02:44:35;;;;;;;9.00;5.20;;;;;;;0.35;67.18;101684.46;106236;1316;137972;-59
2021/11/16 02:47:03;;;;;;;9.80;5.20;;;;;;;0.33;67.03;101678.92;105251;1321;22455;-58
2021/11/16 02:49:32;;;;;;;11.70;6.10;;;;;;;0.32;67.09;101675.98;106362;1316;22471;-59
2021/11/16 02:52:00;;;;;;;6.50;4.40;;;;;;;0.31;67.39;101673.70;106281;1316;139037;-59
2021/11/16 02:54:28;;;;;;;7.80;6.10;;;;;;;0.31;67.26;101674.58;106372;1315;22462;-59
2021/11/16 02:56:56;;;;;;;6.80;4.70;;;;;;;0.28;67.06;101675.13;106214;1316;138142;-59
2021/11/16 02:59:24;;;;;;;9.10;5.40;;;;;;;0.24;66.99;101673.28;106392;1316;22507;-59
2021/11/16 03:01:52;;;;;;;11.70;5.00;;;;;;;0.22;67.03;101673.89;106337;1316;22576;-59
2021/11/16 03:04:21;;;;;;;6.20;4.60;;;;;;;0.19;67.33;101668.78;106266;1316;138834;-59
2021/11/16 03:06:49;;;;;;;6.30;4.80;;;;;;;0.21;67.42;101675.75;106333;1315;22475;-59
2021/11/16 03:09:17;;;;;;;6.70;4.40;;;;;;;0.22;67.44;101679.70;106146;1316;137936;-59
2021/11/16 03:11:48;;;;;;;6.20;4.20;;;;;;;0.24;67.65;101679.68;106330;1315;22527;-58
2021/11/16 03:14:20;;;;;;;9.00;5.40;;;;;;;0.26;67.54;101677.46;106230;1316;138142;-59
2021/11/16 03:16:48;;;;;;;8.90;5.90;;;;;;;0.26;67.21;101673.52;106302;1316;22492;-59
2021/11/16 03:19:17;;;;;;;7.70;5.30;;;;;;;0.27;67.33;101674.48;106356;1318;22482;-59
2021/11/16 03:21:54;;;;;;;9.90;6.00;;;;;;;0.26;67.31;101669.39;106236;1316;138186;-59
2021/11/16 03:24:23;;;;;;;;;;;;;;;0.24;67.10;101661.52;106320;1316;22476;-59
2021/11/16 03:26:51;;;;;;;8.20;5.50;;;;;;;0.20;67.24;101664.40;106248;1315;124542;-59
2021/11/16 03:29:23;;;;;;;6.50;5.10;;;;;;;0.14;66.99;101662.77;105453;1315;22400;-59
2021/11/16 03:32:04;;;;;;;7.60;5.30;;;;;;;0.11;67.40;101662.70;106334;1316;23236;-59
2021/11/16 03:34:33;;;;;;;7.30;5.30;;;;;;;0.10;67.48;101661.88;106302;1317;137665;-59
2021/11/16 03:37:03;;;;;;;8.20;5.60;;;;;;;0.10;67.47;101656.77;106342;1316;22418;-59
2021/11/16 03:39:33;;;;;;;8.90;5.70;;;;;;;0.11;67.80;101656.08;106072;1316;139046;-58
2021/11/16 03:42:01;;;;;;;7.20;5.50;;;;;;;0.13;67.71;101655.60;106203;1316;22476;-59
2021/11/16 03:44:29;;;;;;;8.50;5.70;;;;;;;0.14;67.50;101655.16;105972;1316;137979;-59
2021/11/16 03:46:57;;;;;;;8.10;5.30;;;;;;;0.10;67.35;101655.29;106310;1316;22509;-59
2021/11/16 03:49:25;;;;;;;10.50;6.50;;;;;;;0.07;67.46;101651.06;106336;1316;22496;-59
2021/11/16 03:51:54;;;;;;;8.70;5.90;;;;;;;0.05;67.39;101653.04;106129;1315;138082;-60
2021/11/16 03:54:22;;;;;;;8.10;5.50;;;;;;;0.05;67.64;101658.25;106346;1319;22281;-62
2021/11/16 03:56:52;;;;;;;7.80;5.50;;;;;;;0.05;67.73;101655.73;106185;1316;139064;-59
2021/11/16 03:59:20;;;;;;;9.00;6.20;;;;;;;0.06;67.85;101653.73;106343;1315;22475;-59
2021/11/16 04:01:48;;;;;;;7.90;5.80;;;;;;;0.08;67.81;101651.38;106334;1316;22395;-60
2021/11/16 04:04:19;;;;;;;9.70;6.70;;;;;;;0.09;67.71;101648.95;106227;1315;138050;-59
2021/11/16 04:06:47;;;;;;;9.30;6.50;;;;;;;0.08;67.51;101646.14;105556;1316;23521;-58
2021/11/16 04:09:16;;;;;;;10.20;6.60;;;;;;;0.11;67.56;101648.94;106219;1316;138691;-59
2021/11/16 04:11:44;;;;;;;9.30;6.30;;;;;;;0.14;67.56;101644.73;106321;1315;22476;-59
2021/11/16 04:14:13;;;;;;;10.00;6.70;;;;;;;0.16;67.78;101650.59;106343;1316;22550;-59
2021/11/16 04:16:41;;;;;;;8.70;6.30;;;;;;;0.14;67.41;101648.98;106204;1315;138659;-58
2021/11/16 04:19:10;;;;;;;8.40;6.10;;;;;;;0.13;67.54;101649.67;106315;1315;22465;-59
2021/11/16 04:21:38;;;;;;;11.50;6.20;;;;;;;0.14;67.45;101647.48;106230;1316;137845;-58
2021/11/16 04:24:06;;;;;;;8.40;6.50;;;;;;;0.16;67.85;101647.57;106343;1315;22531;-59
2021/11/16 04:26:34;;;;;;;7.40;5.50;;;;;;;0.17;67.48;101645.52;106236;1315;141806;-58
2021/11/16 04:29:05;;;;;;;10.50;6.40;;;;;;;0.16;67.34;101641.16;106330;1317;22510;-58
2021/11/16 04:31:33;;;;;;;7.40;5.50;;;;;;;0.16;67.13;101641.11;106315;1316;22636;-59
2021/11/16 04:34:03;;;;;;;8.50;6.20;;;;;;;0.18;67.49;101648.82;106206;1316;140016;-58
2021/11/16 04:36:33;;;;;;;8.20;5.80;;;;;;;0.18;67.56;101650.65;106331;1315;22277;-59
2021/11/16 04:39:06;;;;;;;9.70;6.80;;;;;;;0.17;67.40;101646.81;106209;1315;139046;-58
2021/11/16 04:41:35;;;;;;;8.10;5.50;;;;;;;0.17;67.65;101650.56;106331;1316;23430;-58
2021/11/16 04:44:06;;;;;;;9.20;5.80;;;;;;;0.16;67.46;101657.39;106295;1316;23443;-59
2021/11/16 04:46:34;;;;;;;8.10;5.90;;;;;;;0.16;67.35;101657.23;105480;1316;208765;-59
2021/11/16 04:49:10;;;;;;;9.60;6.30;;;;;;;0.17;67.37;101654.86;106311;1316;22363;-59
2021/11/16 04:51:46;;;;;;;9.70;6.70;;;;;;;0.17;67.27;101651.64;106238;1316;138850;-60
2021/11/16 04:59:54;;;;;;;10.30;6.70;;;;;;;0.09;67.15;101649.84;106347;1318;22438;-59
2021/11/16 05:02:41;;;;;;;11.20;6.40;;;;;;;0.07;67.29;101650.53;106183;1313;139733;-59
2021/11/16 05:05:18;;;;;;;8.90;6.50;;;;;;;0.06;67.32;101648.02;104022;1316;22585;-59
2021/11/16 05:07:52;;;;;;;9.90;6.70;;;;;;;0.07;67.40;101647.92;106335;1314;22463;-59
2021/11/16 05:10:21;;;;;;;11.40;6.50;;;;;;;0.05;67.58;101645.16;105924;1316;140011;-59
2021/11/16 05:12:49;;;;;;;8.70;6.40;;;;;;;0.01;67.62;101637.88;106161;1316;22543;-61
2021/11/16 05:15:19;;;;;;;12.00;8.40;;;;;;;0.05;67.46;101648.41;105876;1315;137781;-58
2021/11/16 05:17:48;;;;;;;13.60;8.60;;;;;;;0.05;67.58;101657.69;106301;1314;23193;-58
2021/11/16 05:20:16;;;;;;;13.20;7.80;;;;;;;0.05;67.53;101654.15;106379;1315;24782;-58
2021/11/16 05:22:47;;;;;;;10.80;7.40;;;;;;;0.07;67.86;101658.28;106226;1316;137877;-58
2021/11/16 05:25:15;;;;;;;11.10;7.20;;;;;;;0.09;67.70;101649.69;106343;1315;23039;-58
2021/11/16 05:27:44;;;;;;;12.00;8.20;;;;;;;0.11;67.56;101656.61;106275;1316;138182;-59
2021/11/16 05:30:13;;;;;;;11.60;7.20;;;;;;;0.13;67.70;101658.40;106362;1313;22291;-58
2021/11/16 05:32:41;;;;;;;16.70;8.30;;;;;;;0.12;67.37;101653.54;106219;1315;139742;-59
2021/11/16 05:35:10;;;;;;;11.30;7.50;;;;;;;0.14;67.43;101658.11;106323;1316;22531;-58
2021/11/16 05:37:39;;;;;;;13.30;9.40;;;;;;;0.14;67.17;101659.72;106365;1313;22490;-59
2021/11/16 05:40:08;;;;;;;20.20;10.60;;;;;;;0.14;67.47;101664.75;106224;1316;138158;-58
2021/11/16 05:42:37;;;;;;;15.70;9.60;;;;;;;0.15;67.25;101662.67;106382;1315;22255;-58
2021/11/16 05:45:06;;;;;;;10.00;6.70;;;;;;;0.16;67.04;101659.87;106293;1315;137971;-58
2021/11/16 05:47:34;;;;;;;9.40;6.80;;;;;;;0.16;67.39;101664.56;106389;1315;25783;-58
2021/11/16 05:50:07;;;;;;;9.80;7.00;;;;;;;0.13;67.40;101666.86;106385;1315;22415;-60
2021/11/16 05:52:36;;;;;;;8.50;7.40;;;;;;;0.10;67.32;101661.58;106227;1315;138328;-58
2021/11/16 05:55:07;;;;;;;14.30;7.80;;;;;;;0.09;67.77;101663.06;106393;1316;22448;-59
2021/11/16 05:57:36;;;;;;;10.90;6.60;;;;;;;0.10;67.61;101664.81;106141;1316;138183;-59
2021/11/16 06:00:06;;;;;;;17.20;8.40;;;;;;;0.09;67.59;101669.48;106320;1315;22479;-59
2021/11/16 06:02:36;;;;;;;14.60;8.40;;;;;;;0.09;67.40;101669.35;106303;1315;138127;-59
2021/11/16 06:05:05;;;;;;;16.00;9.50;;;;;;;0.09;67.64;101669.80;106334;1315;22389;-59
2021/11/16 06:07:33;;;;;;;17.80;9.80;;;;;;;0.09;67.65;101668.62;106347;1315;23312;-59
2021/11/16 06:10:02;;;;;;;14.00;8.50;;;;;;;0.06;67.49;101673.00;106280;1315;137781;-58
2021/11/16 06:12:32;;;;;;;11.90;7.30;;;;;;;0.03;67.28;101678.13;106337;1316;22411;-58
2021/11/16 06:15:00;;;;;;;8.80;6.90;;;;;;;0.02;67.56;101680.35;106321;1316;138622;-59
2021/11/16 06:17:29;;;;;;;16.50;8.10;;;;;;;-0.01;67.58;101676.61;106328;1315;22334;-58
2021/11/16 06:19:57;;;;;;;10.20;7.30;;;;;;;0.01;67.73;101677.02;106192;1315;22490;-59
2021/11/16 06:22:25;;;;;;;10.30;7.80;;;;;;;-0.00;67.85;101677.30;106131;1316;138070;-59
2021/11/16 06:24:53;;;;;;;11.20;7.40;;;;;;;0.02;67.75;101680.14;105558;1316;22391;-59
2021/11/16 06:27:21;;;;;;;13.10;7.40;;;;;;;0.02;68.05;101679.23;106211;1316;138125;-58
2021/11/16 06:29:49;;;;;;;12.10;7.20;;;;;;;0.04;68.02;101682.79;106379;1316;23351;-58
2021/11/16 06:32:17;;;;;;;16.40;8.80;;;;;;;0.06;67.87;101679.98;106382;1316;22592;-58
2021/11/16 06:34:45;;;;;;;13.50;8.90;;;;;;;0.07;67.79;101678.99;106228;1316;138862;-58
2021/11/16 06:37:13;;;;;;;14.30;8.70;;;;;;;0.06;67.90;101669.77;106302;1315;22450;-59
2021/11/16 06:39:41;;;;;;;18.90;9.40;;;;;;;0.11;67.95;101675.38;106204;1316;138546;-59
2021/11/16 06:42:13;;;;;;;12.40;7.80;;;;;;;0.15;68.09;101676.84;106320;1316;22379;-58
2021/11/16 06:44:42;;;;;;;13.50;7.30;;;;;;;0.20;68.15;101671.40;106213;1316;138766;-58
2021/11/16 06:47:13;;;;;;;10.40;6.80;;;;;;;0.24;68.18;101671.55;106282;1319;22323;-58
2021/11/16 06:49:45;;;;;;;18.20;7.60;;;;;;;0.26;67.96;101669.00;106292;1316;22529;-59
2021/11/16 06:52:13;;;;;;;10.60;7.10;;;;;;;0.29;67.64;101670.88;106215;1316;138004;-58
2021/11/16 06:54:41;;;;;;;13.30;7.60;;;;;;;0.32;67.60;101669.52;106276;1316;22397;-59
2021/11/16 06:57:09;;;;;;;12.90;7.10;;;;;;;0.34;67.47;101669.52;106120;1316;138281;-58
2021/11/16 06:59:38;;;;;;;11.60;7.20;;;;;;;0.35;67.26;101666.17;106344;1315;22627;-59
2021/11/16 07:02:06;;;;;;;27.60;15.90;;;;;;;0.35;67.35;101665.48;105479;1322;22680;-58
2021/11/16 07:04:35;;;;;;;20.60;12.20;;;;;;;0.35;67.26;101661.19;106281;1316;138841;-58
2021/11/16 07:07:04;;;;;;;20.10;12.50;;;;;;;0.38;67.39;101659.55;106339;1315;22413;-58
2021/11/16 07:09:35;;;;;;;48.20;26.00;;;;;;;0.40;67.37;101663.83;106275;1315;138173;-58
2021/11/16 07:12:25;;;;;;;;;;;;;;;0.43;67.42;101666.25;106411;1315;22451;-58
2021/11/16 07:14:53;;;;;;;15.30;9.80;;;;;;;0.44;67.45;101663.75;106249;1315;127104;-58
2021/11/16 07:17:21;;;;;;;12.00;7.60;;;;;;;0.47;67.10;101665.84;106372;1315;23560;-58
2021/11/16 07:19:54;;;;;;;15.70;7.40;;;;;;;0.51;67.22;101664.98;106342;1315;22517;-59
2021/11/16 07:22:24;;;;;;;12.80;6.70;;;;;;;0.54;67.02;101663.75;106250;1316;138801;-58
2021/11/16 07:24:53;;;;;;;10.10;7.00;;;;;;;0.59;67.02;101657.23;106451;1316;22448;-59
2021/11/16 07:27:30;;;;;;;10.00;6.80;;;;;;;0.63;66.91;101652.75;106221;1316;139004;-58
2021/11/16 07:29:58;;;;;;;12.70;7.50;;;;;;;0.67;67.01;101648.64;106332;1316;22389;-58
2021/11/16 07:32:29;;;;;;;10.10;7.90;;;;;;;0.71;66.88;101648.27;106312;1315;138360;-58
2021/11/16 07:35:02;;;;;;;13.90;8.00;;;;;;;0.74;66.80;101649.27;106356;1316;23260;-58
2021/11/16 07:37:33;;;;;;;12.40;8.70;;;;;;;0.75;66.77;101646.09;106375;1315;22514;-58
2021/11/16 07:40:07;;;;;;;14.20;7.70;;;;;;;0.76;66.77;101644.05;106266;1316;138936;-59
2021/11/16 07:43:09;;;;;;;17.80;9.60;;;;;;;0.77;66.54;101646.30;105814;1319;23150;-59
2021/11/16 07:45:45;;;;;;;12.10;7.90;;;;;;;0.76;66.29;101644.15;106307;1316;137917;-58
2021/11/16 07:48:18;;;;;;;14.40;6.80;;;;;;;0.77;66.52;101636.98;106370;1316;23727;-58
2021/11/16 07:50:53;;;;;;;14.70;7.00;;;;;;;0.79;66.59;101641.64;106159;1316;139263;-58
2021/11/16 07:53:23;;;;;;;10.10;6.40;;;;;;;0.82;66.44;101639.22;106405;1316;22583;-58
2021/11/16 07:55:51;;;;;;;12.20;6.90;;;;;;;0.86;66.28;101637.95;106384;1316;22404;-58
2021/11/16 07:58:21;;;;;;;9.50;7.20;;;;;;;0.89;66.37;101634.09;106284;1317;138888;-59
2021/11/16 08:00:50;;;;;;;10.10;7.70;;;;;;;0.91;66.31;101629.88;105896;1322;22418;-59
2021/11/16 08:03:21;;;;;;;30.00;8.00;;;;;;;0.94;66.36;101634.99;106270;1315;139249;-58
2021/11/16 08:06:02;;;;;;;15.50;7.10;;;;;;;0.98;66.41;101629.03;106180;1316;22549;-58
2021/11/16 08:11:21;;;;;;;18.60;9.20;;;;;;;1.09;66.17;101632.20;106330;1315;22397;-58
2021/11/16 08:14:00;;;;;;;18.00;10.00;;;;;;;1.13;65.87;101620.30;106263;1315;23171;-59
2021/11/16 08:16:28;;;;;;;12.60;8.40;;;;;;;1.17;65.73;101617.98;106231;1316;138397;-59
2021/11/16 08:19:07;;;;;;;17.30;9.00;;;;;;;1.20;65.96;101616.02;106327;1315;22527;-59
2021/11/16 08:21:36;;;;;;;20.50;9.90;;;;;;;1.30;66.03;101619.52;106262;1319;138415;-58
2021/11/16 08:24:10;;;;;;;15.90;9.70;;;;;;;1.38;65.91;101621.63;106377;1316;22516;-59
2021/11/16 08:26:45;;;;;;;13.90;8.10;;;;;;;1.45;65.63;101624.39;106111;1315;139943;-58
2021/11/16 08:29:15;;;;;;;11.40;7.10;;;;;;;1.48;65.38;101625.05;106310;1316;24140;-58
2021/11/16 08:31:47;;;;;;;10.90;7.20;;;;;;;1.50;65.06;101619.23;106264;1315;22524;-58
2021/11/16 08:34:16;;;;;;;8.80;6.20;;;;;;;1.54;64.90;101618.65;106220;1315;137200;-59
2021/11/16 08:36:52;;;;;;;12.20;6.30;;;;;;;1.59;64.81;101618.39;106252;1316;22548;-58
2021/11/16 08:39:36;;;;;;;9.40;6.60;;;;;;;1.60;64.48;101613.03;105920;1315;139554;-58
2021/11/16 08:42:17;;;;;;;12.50;6.80;;;;;;;1.59;64.56;101610.81;102359;1316;24969;-59
2021/11/16 08:45:06;;;;;;;10.30;7.50;;;;;;;1.55;64.40;101602.08;106256;1316;138332;-57
2021/11/16 08:49:06;;;;;;;14.10;7.70;;;;;;;1.55;64.58;101599.39;99467;1353;545998;-58
2021/11/16 08:51:43;;;;;;;9.70;6.90;;;;;;;1.55;64.38;101601.40;101231;1326;138182;-60
2021/11/16 08:54:11;;;;;;;13.10;8.10;;;;;;;1.52;63.99;101599.51;101035;1334;25444;-59
2021/11/16 08:56:40;;;;;;;9.30;6.90;;;;;;;1.48;63.87;101602.23;104916;1328;137914;-59
2021/11/16 08:59:14;;;;;;;11.00;7.60;;;;;;;1.49;63.93;101597.00;105149;1330;23208;-59
2021/11/16 09:01:52;;;;;;;12.30;7.40;;;;;;;1.50;64.21;101593.33;105039;1328;148613;-60
2021/11/16 09:04:32;;;;;;;13.20;6.70;;;;;;;1.52;64.33;101588.77;105236;1330;137432;-59
2021/11/16 09:07:01;;;;;;;10.30;6.80;;;;;;;1.53;64.30;101591.93;105423;1326;22467;-59
2021/11/16 09:09:30;;;;;;;13.40;7.10;;;;;;;1.57;63.74;101591.21;105276;1330;137851;-57
2021/11/16 09:12:04;;;;;;;9.30;7.10;;;;;;;1.56;63.80;101590.20;105396;1329;22553;-58
2021/11/16 09:14:32;;;;;;;12.90;7.70;;;;;;;1.54;63.68;101587.01;105002;1328;137785;-58
2021/11/16 09:17:10;;;;;;;12.20;7.50;;;;;;;1.53;63.71;101578.87;104861;1331;23591;-57
2021/11/16 09:19:39;;;;;;;10.90;7.50;;;;;;;1.56;63.65;101575.49;105309;1330;22472;-58
2021/11/16 09:22:13;;;;;;;12.80;7.50;;;;;;;1.61;63.92;101571.20;105212;1330;138614;-58
2021/11/16 09:24:43;;;;;;;17.20;9.20;;;;;;;1.68;64.02;101567.48;105328;1325;23161;-58
2021/11/16 09:27:29;;;;;;;73.40;34.80;;;;;;;1.75;63.96;101562.84;105204;1328;137659;-59
2021/11/16 09:29:57;;;;;;;21.40;13.40;;;;;;;1.85;63.81;101564.09;105325;1325;22490;-58
2021/11/16 09:32:28;;;;;;;16.00;8.90;;;;;;;1.92;63.38;101565.73;105251;1330;138568;-58
2021/11/16 09:34:58;;;;;;;15.00;8.90;;;;;;;1.92;62.91;101557.44;105319;1325;22483;-58
2021/11/16 09:37:27;;;;;;;26.30;13.70;;;;;;;1.92;62.74;101554.41;105313;1325;22537;-58
2021/11/16 09:39:58;;;;;;;17.80;9.90;;;;;;;1.92;62.90;101554.75;105206;1330;140488;-64
2021/11/16 09:42:29;;;;;;;24.00;9.20;;;;;;;1.91;62.69;101550.73;105305;1325;22478;-64
2021/11/16 09:45:05;;;;;;;11.90;8.30;;;;;;;1.91;62.49;101545.36;105170;1325;139495;-63
2021/11/16 09:47:41;;;;;;;10.20;7.40;;;;;;;1.94;62.76;101536.97;105171;1328;22476;-64
2021/11/16 09:50:18;;;;;;;10.60;7.40;;;;;;;2.00;62.79;101540.73;105370;1325;22552;-64
2021/11/16 09:52:49;;;;;;;;;;;;;;;2.04;62.39;101538.44;105343;1325;137299;-64
2021/11/16 09:55:21;;;;;;;12.50;7.80;;;;;;;2.09;62.47;101538.73;105464;1325;22487;-65
2021/11/16 09:57:59;;;;;;;11.50;7.10;;;;;;;2.12;62.48;101531.58;105347;1325;138185;-64
2021/11/16 10:00:30;;;;;;;13.00;8.00;;;;;;;2.14;62.33;101530.86;105459;1325;22538;-64
2021/11/16 10:03:06;;;;;;;14.50;8.10;;;;;;;2.17;62.36;101523.04;105294;1325;137905;-64
2021/11/16 10:05:42;;;;;;;13.30;7.90;;;;;;;2.19;62.13;101523.33;105390;1326;22459;-63
2021/11/16 10:08:10;;;;;;;15.40;9.50;;;;;;;2.20;62.32;101523.73;104821;1325;22630;-64
2021/11/16 10:10:40;;;;;;;16.80;9.00;;;;;;;2.24;62.02;101525.39;105310;1326;137558;-63
2021/11/16 10:13:11;;;;;;;27.50;8.50;;;;;;;2.25;61.80;101523.98;105453;1326;22428;-64
2021/11/16 10:15:44;;;;;;;16.80;8.60;;;;;;;2.26;61.86;101519.05;105296;1325;138862;-63
2021/11/16 10:18:12;;;;;;;24.80;9.70;;;;;;;2.28;61.69;101512.36;105435;1325;22290;-64
2021/11/16 10:20:43;;;;;;;13.60;8.60;;;;;;;2.32;61.84;101513.23;105295;1325;137841;-61
2021/11/16 10:23:19;;;;;;;15.60;9.30;;;;;;;2.37;61.68;101511.25;105446;1326;22578;-64
2021/11/16 10:25:52;;;;;;;22.50;12.90;;;;;;;2.42;61.65;101503.20;105430;1326;23367;-64
2021/11/16 10:28:21;;;;;;;19.20;9.90;;;;;;;2.46;61.48;101502.05;105180;1325;144087;-65
2021/11/16 10:30:50;;;;;;;13.50;8.70;;;;;;;2.48;61.30;101494.30;105172;1326;22537;-64
2021/11/16 10:33:20;;;;;;;12.30;7.70;;;;;;;2.53;61.41;101495.15;105289;1325;137600;-64
2021/11/16 10:35:56;;;;;;;13.50;7.40;;;;;;;2.56;61.20;101496.04;105332;1325;23208;-64
2021/11/16 10:38:29;;;;;;;10.20;6.80;;;;;;;2.60;61.22;101490.59;105375;1326;22500;-64
2021/11/16 10:40:58;;;;;;;11.50;6.40;;;;;;;2.65;60.84;101490.31;105339;1325;136964;-64
2021/11/16 10:43:43;;;;;;;13.00;6.80;;;;;;;2.68;60.73;101483.55;105409;1325;23231;-64
2021/11/16 10:46:11;;;;;;;23.10;9.30;;;;;;;2.71;60.72;101480.02;105251;1326;137081;-64
2021/11/16 10:48:40;;;;;;;16.70;8.90;;;;;;;2.73;60.60;101480.14;105338;1325;22414;-63
2021/11/16 10:51:12;;;;;;;11.20;7.40;;;;;;;2.74;60.48;101474.06;105250;1325;137661;-64
2021/11/16 10:53:47;;;;;;;10.80;7.30;;;;;;;2.73;60.38;101469.02;105374;1325;22485;-64
2021/11/16 10:56:16;;;;;;;13.70;7.60;;;;;;;2.70;60.32;101465.91;105409;1325;22588;-64
2021/11/16 10:58:44;;;;;;;10.30;7.70;;;;;;;2.71;60.57;101459.18;105289;1326;138357;-64
2021/11/16 11:01:25;;;;;;;13.00;7.70;;;;;;;2.72;60.48;101455.46;105368;1325;23488;-64
2021/11/16 11:03:55;;;;;;;14.40;8.00;;;;;;;2.72;60.32;101450.14;105286;1325;138707;-65
2021/11/16 11:06:34;;;;;;;9.50;7.00;;;;;;;2.71;60.55;101443.91;105374;1325;23267;-64
2021/11/16 11:09:06;;;;;;;14.20;8.10;;;;;;;2.72;60.30;101445.01;105316;1329;138268;-63
2021/11/16 11:11:42;;;;;;;14.90;9.30;;;;;;;2.72;60.31;101446.25;105380;1330;22414;-63
2021/11/16 11:14:22;;;;;;;17.00;8.90;;;;;;;2.73;60.41;101444.64;105192;1328;22755;-63
2021/11/16 11:16:55;;;;;;;22.50;9.50;;;;;;;2.74;60.56;101444.13;105250;1325;138841;-64
2021/11/16 11:19:49;;;;;;;15.90;9.00;;;;;;;2.76;60.45;101442.27;105351;1330;22605;-63
2021/11/16 11:22:26;;;;;;;19.10;9.30;;;;;;;2.77;60.19;101433.90;105248;1325;136987;-63
2021/11/16 11:25:03;;;;;;;13.40;9.10;;;;;;;2.79;60.03;101432.04;101630;1330;25430;-65
2021/11/16 11:27:38;;;;;;;18.00;9.80;;;;;;;2.80;60.06;101431.95;105157;1325;137350;-63
2021/11/16 11:30:15;;;;;;;14.20;8.20;;;;;;;2.80;60.12;101427.13;105334;1325;22570;-63
2021/11/16 11:32:44;;;;;;;14.30;8.50;;;;;;;2.80;59.84;101423.48;105381;1325;22458;-64
2021/11/16 11:35:14;;;;;;;15.00;9.10;;;;;;;2.83;59.70;101420.69;105298;1326;136896;-64
2021/11/16 11:37:52;;;;;;;14.60;10.10;;;;;;;2.84;59.74;101417.60;105383;1326;22532;-64
2021/11/16 11:40:40;;;;;;;20.50;11.30;;;;;;;2.83;59.90;101419.65;105302;1325;137355;-64
2021/11/16 11:43:18;;;;;;;18.40;10.50;;;;;;;2.82;59.99;101422.02;104753;1325;22590;-65